createdAt,value
2022-07-25T00:00:37.244Z,14.60
2022-07-25T00:03:05.074Z,15.10
2022-07-25T00:08:05.919Z,14.50
2022-07-25T00:10:33.419Z,15.20
2022-07-25T00:13:00.834Z,18.10
2022-07-25T00:15:29.361Z,14.60
2022-07-25T00:17:56.753Z,14.88
2022-07-25T00:20:24.162Z,14.77
2022-07-25T00:22:51.464Z,14.73
2022-07-25T00:25:18.902Z,15.95
2022-07-25T00:27:46.184Z,15.13
2022-07-25T00:30:13.881Z,14.68
2022-07-25T00:32:41.206Z,14.60
2022-07-25T00:35:08.850Z,15.18
2022-07-25T00:37:36.594Z,15.35
2022-07-25T00:40:04.479Z,15.15
2022-07-25T00:42:32.624Z,15.18
2022-07-25T00:45:00.353Z,14.60
2022-07-25T00:47:27.785Z,14.82
2022-07-25T00:49:55.209Z,14.98
2022-07-25T00:52:24.868Z,15.27
2022-07-25T00:54:52.225Z,15.02
2022-07-25T00:57:19.731Z,14.77
2022-07-25T00:59:47.138Z,16.15
2022-07-25T01:02:14.680Z,14.95
2022-07-25T01:04:42.106Z,14.55
2022-07-25T01:07:09.493Z,14.82
2022-07-25T01:09:37.433Z,14.40
2022-07-25T01:12:05.272Z,13.85
2022-07-25T01:14:39.233Z,14.85
2022-07-25T01:17:06.582Z,14.38
2022-07-25T01:19:34.017Z,14.38
2022-07-25T01:22:01.293Z,14.40
2022-07-25T01:24:29.745Z,14.70
2022-07-25T01:26:57.019Z,14.48
2022-07-25T01:29:24.257Z,14.38
2022-07-25T01:31:51.510Z,13.90
2022-07-25T01:34:18.823Z,13.68
2022-07-25T01:36:46.169Z,13.50
2022-07-25T01:39:13.409Z,14.93
2022-07-25T01:41:40.763Z,15.25
2022-07-25T01:44:08.388Z,15.00
2022-07-25T01:46:36.034Z,15.00
2022-07-25T01:49:03.527Z,14.13
2022-07-25T01:51:30.861Z,14.25
2022-07-25T01:53:58.163Z,14.15
2022-07-25T01:56:25.365Z,14.63
2022-07-25T01:58:52.736Z,14.50
2022-07-25T02:01:22.039Z,13.82
2022-07-25T02:03:50.367Z,14.00
2022-07-25T02:06:18.985Z,14.13
2022-07-25T02:08:46.303Z,15.60
2022-07-25T02:11:13.605Z,14.50
2022-07-25T02:13:40.937Z,14.73
2022-07-25T02:16:08.169Z,15.40
2022-07-25T02:18:35.654Z,14.55
2022-07-25T02:21:07.207Z,13.50
2022-07-25T02:23:42.933Z,14.60
2022-07-25T02:26:10.692Z,15.43
2022-07-25T02:28:37.966Z,14.18
2022-07-25T02:31:05.388Z,14.10
2022-07-25T02:33:32.710Z,14.07
2022-07-25T02:35:59.969Z,14.23
2022-07-25T02:38:27.291Z,14.35
2022-07-25T02:40:54.636Z,13.48
2022-07-25T02:43:23.247Z,14.55
2022-07-25T02:45:50.641Z,15.25
2022-07-25T02:48:17.897Z,13.90
2022-07-25T02:50:45.093Z,15.20
2022-07-25T02:53:12.383Z,15.23
2022-07-25T02:55:39.588Z,15.30
2022-07-25T02:58:06.830Z,13.95
2022-07-25T03:00:34.507Z,14.93
2022-07-25T03:03:01.831Z,14.88
2022-07-25T03:05:31.618Z,14.38
2022-07-25T03:07:58.941Z,14.48
2022-07-25T03:10:26.284Z,17.42
2022-07-25T03:12:53.464Z,15.15
2022-07-25T03:15:20.773Z,16.77
2022-07-25T03:17:48.005Z,15.23
2022-07-25T03:20:15.360Z,15.05
2022-07-25T03:22:42.787Z,14.85
2022-07-25T03:25:15.725Z,15.25
2022-07-25T03:27:48.967Z,14.52
2022-07-25T03:30:16.237Z,15.38
2022-07-25T03:32:43.503Z,15.75
2022-07-25T03:35:10.855Z,15.80
2022-07-25T03:37:38.311Z,16.08
2022-07-25T03:40:06.514Z,17.15
2022-07-25T03:42:35.598Z,16.08
2022-07-25T03:45:03.586Z,17.30
2022-07-25T03:47:30.784Z,16.73
2022-07-25T03:49:58.055Z,16.50
2022-07-25T03:52:25.358Z,16.23
2022-07-25T03:54:52.643Z,16.08
2022-07-25T03:57:19.877Z,16.10
2022-07-25T03:59:47.216Z,15.63
2022-07-25T04:02:14.536Z,15.40
2022-07-25T04:04:42.232Z,16.40
2022-07-25T04:07:09.508Z,16.67
2022-07-25T04:09:37.789Z,16.48
2022-07-25T04:12:05.584Z,15.65
2022-07-25T04:14:32.853Z,15.10
2022-07-25T04:17:00.261Z,15.00
2022-07-25T04:19:28.837Z,16.13
2022-07-25T04:21:56.584Z,15.48
2022-07-25T04:24:23.911Z,16.15
2022-07-25T04:26:51.146Z,17.50
2022-07-25T04:29:18.433Z,16.15
2022-07-25T04:31:45.733Z,16.00
2022-07-25T04:34:13.038Z,16.58
2022-07-25T04:36:41.103Z,17.77
2022-07-25T04:39:08.343Z,16.80
2022-07-25T04:41:35.574Z,17.77
2022-07-25T04:44:03.176Z,17.17
2022-07-25T04:46:30.643Z,16.40
2022-07-25T04:48:58.079Z,16.50
2022-07-25T04:51:25.459Z,17.38
2022-07-25T04:53:52.733Z,18.17
2022-07-25T04:56:20.101Z,16.77
2022-07-25T04:58:47.327Z,16.63
2022-07-25T05:01:14.823Z,17.13
2022-07-25T05:03:49.969Z,17.85
2022-07-25T05:06:19.046Z,16.52
2022-07-25T05:08:46.330Z,17.08
2022-07-25T05:11:13.652Z,16.38
2022-07-25T05:13:40.978Z,17.00
2022-07-25T05:16:08.500Z,16.70
2022-07-25T05:18:35.805Z,16.92
2022-07-25T05:21:03.159Z,16.95
2022-07-25T05:23:30.428Z,16.35
2022-07-25T05:25:57.774Z,17.20
2022-07-25T05:28:25.037Z,18.52
2022-07-25T05:30:52.288Z,16.83
2022-07-25T05:33:19.529Z,15.85
2022-07-25T05:35:46.910Z,16.83
2022-07-25T05:38:14.113Z,15.80
2022-07-25T05:40:41.372Z,18.58
2022-07-25T05:43:09.382Z,18.73
2022-07-25T05:45:36.644Z,16.17
2022-07-25T05:48:03.946Z,15.75
2022-07-25T05:50:31.755Z,17.00
2022-07-25T05:52:58.979Z,15.10
2022-07-25T05:55:26.229Z,14.88
2022-07-25T05:57:53.530Z,14.60
2022-07-25T06:00:20.911Z,15.75
2022-07-25T06:02:48.412Z,14.57
2022-07-25T06:05:15.935Z,14.18
2022-07-25T06:07:43.182Z,13.90
2022-07-25T06:10:10.498Z,14.10
2022-07-25T06:12:37.905Z,13.55
2022-07-25T06:15:06.451Z,14.95
2022-07-25T06:17:33.809Z,13.80
2022-07-25T06:20:01.168Z,14.07
2022-07-25T06:22:29.998Z,14.93
2022-07-25T06:24:57.248Z,14.63
2022-07-25T06:27:29.124Z,14.68
2022-07-25T06:29:56.836Z,14.82
2022-07-25T06:32:24.385Z,14.20
2022-07-25T06:34:51.614Z,14.93
2022-07-25T06:37:19.099Z,13.70
2022-07-25T06:39:46.481Z,13.25
2022-07-25T06:42:13.849Z,13.60
2022-07-25T06:44:41.324Z,13.43
2022-07-25T06:47:12.877Z,12.90
2022-07-25T06:52:10.776Z,14.60
2022-07-25T06:54:38.331Z,14.88
2022-07-25T06:57:05.677Z,13.82
2022-07-25T06:59:34.034Z,14.88
2022-07-25T07:02:01.454Z,13.60
2022-07-25T07:04:28.729Z,14.60
2022-07-25T07:06:55.945Z,15.57
2022-07-25T07:09:23.243Z,14.35
2022-07-25T07:11:50.525Z,17.40
2022-07-25T07:14:17.775Z,14.48
2022-07-25T07:16:45.039Z,14.45
2022-07-25T07:19:14.659Z,13.95
2022-07-25T07:21:43.304Z,13.57
2022-07-25T07:24:23.374Z,13.25
2022-07-25T07:26:53.598Z,17.27
2022-07-25T07:29:21.352Z,13.40
2022-07-25T07:31:48.955Z,16.77
2022-07-25T07:34:16.777Z,12.82
2022-07-25T07:36:44.265Z,12.75
2022-07-25T07:39:12.029Z,13.10
2022-07-25T07:41:39.338Z,12.93
2022-07-25T07:44:06.628Z,12.45
2022-07-25T07:46:33.985Z,12.82
2022-07-25T07:49:01.617Z,12.63
2022-07-25T07:51:29.056Z,12.73
2022-07-25T07:54:14.693Z,16.20
2022-07-25T07:56:42.131Z,13.00
2022-07-25T07:59:10.010Z,13.10
2022-07-25T08:01:37.604Z,12.63
2022-07-25T08:04:05.238Z,12.45
2022-07-25T08:06:32.575Z,11.10
2022-07-25T08:08:59.825Z,13.48
2022-07-25T08:11:27.117Z,11.10
2022-07-25T08:13:54.391Z,14.48
2022-07-25T08:16:21.727Z,11.77
2022-07-25T08:18:48.991Z,12.23
2022-07-25T08:21:16.223Z,13.27
2022-07-25T08:23:45.722Z,12.65
2022-07-25T08:26:14.431Z,11.95
2022-07-25T08:28:42.300Z,12.10
2022-07-25T08:31:10.345Z,12.00
2022-07-25T08:33:37.798Z,12.00
2022-07-25T08:36:05.445Z,12.63
2022-07-25T08:38:32.913Z,11.13
2022-07-25T08:41:00.207Z,12.15
2022-07-25T08:43:29.565Z,11.90
2022-07-25T08:45:57.539Z,11.48
2022-07-25T08:48:26.654Z,11.88
2022-07-25T08:50:57.317Z,11.48
2022-07-25T08:53:34.680Z,12.00
2022-07-25T08:56:10.667Z,11.55
2022-07-25T08:58:39.406Z,12.15
2022-07-25T09:01:08.132Z,12.07
2022-07-25T09:03:36.488Z,12.68
2022-07-25T09:06:16.975Z,13.02
2022-07-25T09:08:59.675Z,14.27
2022-07-25T09:11:28.039Z,12.02
2022-07-25T09:14:00.447Z,13.52
2022-07-25T09:16:32.893Z,12.38
2022-07-25T09:19:26.731Z,12.68
2022-07-25T09:22:05.483Z,12.63
2022-07-25T09:24:35.389Z,12.88
2022-07-25T09:27:12.519Z,15.20
2022-07-25T09:29:42.706Z,13.48
2022-07-25T09:32:19.148Z,14.00
2022-07-25T09:34:49.041Z,13.73
2022-07-25T09:37:20.198Z,14.05
2022-07-25T09:39:51.854Z,13.48
2022-07-25T09:42:23.991Z,13.38
2022-07-25T09:45:17.614Z,12.70
2022-07-25T09:47:56.170Z,12.98
2022-07-25T09:50:25.523Z,14.63
2022-07-25T09:52:54.582Z,13.75
2022-07-25T09:55:22.388Z,13.30
2022-07-25T09:57:52.584Z,13.40
2022-07-25T10:00:24.109Z,13.48
2022-07-25T10:03:09.997Z,13.27
2022-07-25T10:06:14.559Z,15.10
2022-07-25T10:08:42.711Z,13.55
2022-07-25T10:11:25.626Z,13.20
2022-07-25T10:13:54.813Z,13.20
2022-07-25T10:16:23.873Z,13.40
2022-07-25T10:18:55.168Z,12.98
2022-07-25T10:21:27.710Z,13.52
2022-07-25T10:24:06.068Z,13.82
2022-07-25T10:26:36.634Z,13.45
2022-07-25T10:29:11.628Z,13.15
2022-07-25T10:31:50.017Z,13.30
2022-07-25T10:34:31.887Z,13.43
2022-07-25T10:37:13.432Z,13.43
2022-07-25T10:39:44.767Z,13.75
2022-07-25T10:42:17.578Z,13.45
2022-07-25T10:44:47.768Z,13.50
2022-07-25T10:47:16.856Z,13.38
2022-07-25T10:50:15.325Z,12.30
2022-07-25T10:52:42.785Z,12.63
2022-07-25T10:55:10.099Z,12.18
2022-07-25T10:57:49.753Z,14.02
2022-07-25T11:00:25.844Z,11.35
2022-07-25T11:02:57.669Z,11.10
2022-07-25T11:05:25.907Z,13.15
2022-07-25T11:08:19.394Z,9.93
2022-07-25T11:10:47.029Z,10.90
2022-07-25T11:13:17.981Z,9.52
2022-07-25T11:15:46.139Z,10.40
2022-07-25T11:18:13.893Z,10.27
2022-07-25T11:20:41.524Z,10.95
2022-07-25T11:23:09.081Z,10.77
2022-07-25T11:25:37.109Z,11.23
2022-07-25T11:28:05.290Z,11.93
2022-07-25T11:30:33.310Z,12.48
2022-07-25T11:33:04.172Z,11.50
2022-07-25T11:35:33.712Z,12.10
2022-07-25T11:38:02.901Z,12.90
2022-07-25T11:40:32.864Z,12.57
2022-07-25T11:43:01.618Z,12.45
2022-07-25T11:45:36.698Z,12.90
2022-07-25T11:48:13.514Z,11.73
2022-07-25T11:50:44.623Z,11.93
2022-07-25T11:53:15.152Z,11.65
2022-07-25T11:55:44.157Z,11.68
2022-07-25T11:58:13.339Z,12.32
2022-07-25T12:00:47.473Z,11.40
2022-07-25T12:03:19.888Z,12.25
2022-07-25T12:05:49.213Z,11.65
2022-07-25T12:08:19.408Z,11.55
2022-07-25T12:10:48.212Z,12.55
2022-07-25T12:13:28.960Z,12.80
2022-07-25T12:15:57.832Z,13.70
2022-07-25T12:18:25.603Z,12.20
2022-07-25T12:20:53.430Z,12.68
2022-07-25T12:23:22.111Z,12.30
2022-07-25T12:25:50.131Z,11.90
2022-07-25T12:28:17.920Z,12.77
2022-07-25T12:30:46.315Z,12.50
2022-07-25T12:33:13.895Z,12.30
2022-07-25T12:35:42.143Z,11.60
2022-07-25T12:38:11.205Z,12.40
2022-07-25T12:40:38.861Z,14.10
2022-07-25T12:43:06.239Z,12.90
2022-07-25T12:45:33.852Z,13.05
2022-07-25T12:48:01.303Z,12.00
2022-07-25T12:50:28.717Z,13.38
2022-07-25T12:52:55.973Z,12.35
2022-07-25T12:55:23.308Z,12.98
2022-07-25T12:57:51.090Z,11.85
2022-07-25T13:00:20.731Z,12.32
2022-07-25T13:02:52.078Z,12.82
2022-07-25T13:05:20.466Z,12.25
2022-07-25T13:07:49.354Z,12.38
2022-07-25T13:10:18.310Z,11.32
2022-07-25T13:12:46.324Z,9.90
2022-07-25T13:15:13.865Z,9.82
2022-07-25T13:17:41.300Z,9.80
2022-07-25T13:20:10.027Z,9.98
2022-07-25T13:22:37.631Z,9.60
2022-07-25T13:25:05.453Z,9.20
2022-07-25T13:27:32.901Z,8.90
2022-07-25T13:30:00.223Z,8.18
2022-07-25T13:32:28.572Z,9.27
2022-07-25T13:34:55.927Z,9.38
2022-07-25T13:37:23.520Z,8.93
2022-07-25T13:39:51.391Z,8.20
2022-07-25T13:42:18.753Z,7.88
2022-07-25T13:44:46.135Z,7.75
2022-07-25T13:47:13.509Z,7.40
2022-07-25T13:49:41.476Z,6.68
2022-07-25T13:52:09.051Z,7.22
2022-07-25T13:54:36.394Z,7.93
2022-07-25T13:57:04.039Z,8.20
2022-07-25T13:59:31.421Z,8.60
2022-07-25T14:01:58.994Z,8.50
2022-07-25T14:04:26.343Z,9.00
2022-07-25T14:06:53.917Z,8.90
2022-07-25T14:09:21.733Z,8.50
2022-07-25T14:11:49.167Z,8.38
2022-07-25T14:14:16.723Z,9.32
2022-07-25T14:16:44.531Z,8.95
2022-07-25T14:19:11.917Z,8.45
2022-07-25T14:21:39.277Z,9.00
2022-07-25T14:24:08.197Z,9.30
2022-07-25T14:26:35.774Z,8.85
2022-07-25T14:29:03.595Z,8.90
2022-07-25T14:31:32.947Z,9.07
2022-07-25T14:34:00.403Z,9.20
2022-07-25T14:36:27.991Z,9.02
2022-07-25T14:38:55.320Z,9.15
2022-07-25T14:41:22.605Z,9.60
2022-07-25T14:43:49.870Z,9.82
2022-07-25T14:46:17.254Z,9.52
2022-07-25T14:48:44.698Z,9.93
2022-07-25T14:51:12.150Z,9.65
2022-07-25T14:53:39.468Z,9.60
2022-07-25T14:56:07.013Z,9.95
2022-07-25T14:58:34.902Z,9.57
2022-07-25T15:01:02.384Z,12.48
2022-07-25T15:03:30.009Z,9.57
2022-07-25T15:05:57.602Z,11.77
2022-07-25T15:08:25.023Z,9.95
2022-07-25T15:10:52.461Z,10.10
2022-07-25T15:13:35.180Z,10.43
2022-07-25T15:16:03.933Z,10.40
2022-07-25T15:18:31.487Z,10.60
2022-07-25T15:20:58.869Z,9.73
2022-07-25T15:23:30.206Z,9.38
2022-07-25T15:26:03.807Z,9.65
2022-07-25T15:28:33.857Z,10.07
2022-07-25T15:31:01.910Z,12.52
2022-07-25T15:33:29.379Z,10.48
2022-07-25T15:35:56.786Z,9.88
2022-07-25T15:38:24.409Z,10.40
2022-07-25T15:40:52.180Z,9.80
2022-07-25T15:43:19.454Z,9.95
2022-07-25T15:45:47.696Z,9.68
2022-07-25T15:48:16.502Z,9.68
2022-07-25T15:50:46.013Z,9.25
2022-07-25T15:53:14.502Z,9.60
2022-07-25T15:55:42.985Z,9.45
2022-07-25T15:58:11.878Z,9.60
2022-07-25T16:00:40.469Z,10.07
2022-07-25T16:03:08.711Z,10.15
2022-07-25T16:05:37.265Z,10.05
2022-07-25T16:08:05.219Z,10.98
2022-07-25T16:10:33.894Z,11.02
2022-07-25T16:13:02.124Z,10.20
2022-07-25T16:15:29.800Z,10.85
2022-07-25T16:18:02.110Z,13.25
2022-07-25T16:20:32.143Z,11.93
2022-07-25T16:23:00.526Z,11.50
2022-07-25T16:25:29.432Z,11.50
2022-07-25T16:27:57.213Z,9.85
2022-07-25T16:30:25.071Z,9.35
2022-07-25T16:32:52.457Z,11.00
2022-07-25T16:35:19.836Z,9.32
2022-07-25T16:37:47.222Z,12.38
2022-07-25T16:40:14.683Z,9.15
2022-07-25T16:42:42.316Z,8.95
2022-07-25T16:45:10.447Z,9.02
2022-07-25T16:47:39.681Z,9.02
2022-07-25T16:50:07.154Z,9.68
2022-07-25T16:52:34.721Z,9.20
2022-07-25T16:55:02.020Z,9.52
2022-07-25T16:57:29.838Z,10.60
2022-07-25T16:59:57.244Z,9.18
2022-07-25T17:02:29.312Z,9.18
2022-07-25T17:04:57.914Z,9.77
2022-07-25T17:07:26.164Z,9.13
2022-07-25T17:09:53.618Z,9.88
2022-07-25T17:12:21.269Z,8.82
2022-07-25T17:14:48.613Z,9.75
2022-07-25T17:17:16.219Z,9.63
2022-07-25T17:19:43.573Z,12.45
2022-07-25T17:22:11.711Z,8.70
2022-07-25T17:24:39.552Z,9.15
2022-07-25T17:27:08.344Z,8.80
2022-07-25T17:29:36.145Z,9.60
2022-07-25T17:32:06.111Z,9.20
2022-07-25T17:34:33.730Z,9.40
2022-07-25T17:37:03.084Z,9.38
2022-07-25T17:39:30.915Z,8.82
2022-07-25T17:41:58.247Z,9.23
2022-07-25T17:44:25.601Z,9.57
2022-07-25T17:46:54.102Z,9.30
2022-07-25T17:49:22.802Z,10.23
2022-07-25T17:51:50.605Z,12.50
2022-07-25T17:54:18.236Z,10.98
2022-07-25T17:56:45.714Z,10.27
2022-07-25T17:59:13.832Z,10.07
2022-07-25T18:01:41.257Z,11.00
2022-07-25T18:04:09.252Z,10.55
2022-07-25T18:06:37.145Z,10.75
2022-07-25T18:09:04.642Z,10.30
2022-07-25T18:11:31.903Z,9.98
2022-07-25T18:13:59.744Z,10.23
2022-07-25T18:16:27.133Z,10.65
2022-07-25T18:18:54.568Z,11.07
2022-07-25T18:21:22.201Z,11.00
2022-07-25T18:23:49.840Z,10.95
2022-07-25T18:26:18.434Z,11.57
2022-07-25T18:28:45.848Z,12.55
2022-07-25T18:31:13.421Z,10.90
2022-07-25T18:33:41.023Z,11.77
2022-07-25T18:36:08.775Z,12.60
2022-07-25T18:38:36.554Z,11.63
2022-07-25T18:41:28.127Z,11.10
2022-07-25T18:43:52.984Z,12.27
2022-07-25T18:46:20.655Z,10.63
2022-07-25T18:48:48.313Z,10.77
2022-07-25T18:51:15.891Z,11.88
2022-07-25T18:53:47.667Z,11.98
2022-07-25T18:56:16.052Z,11.30
2022-07-25T18:58:43.817Z,13.65
2022-07-25T19:01:11.623Z,11.75
2022-07-25T19:03:40.238Z,13.00
2022-07-25T19:06:08.889Z,13.48
2022-07-25T19:08:36.616Z,11.82
2022-07-25T19:11:04.225Z,11.93
2022-07-25T19:13:48.988Z,13.75
2022-07-25T19:16:20.681Z,13.40
2022-07-25T19:18:48.569Z,12.57
2022-07-25T19:21:16.964Z,11.40
2022-07-25T19:23:50.390Z,12.32
2022-07-25T19:26:20.176Z,12.50
2022-07-25T19:28:47.704Z,14.10
2022-07-25T19:31:15.242Z,17.38
2022-07-25T19:33:43.093Z,12.32
2022-07-25T19:36:10.513Z,11.98
2022-07-25T19:38:38.170Z,13.32
2022-07-25T19:41:05.778Z,12.88
2022-07-25T19:43:33.209Z,12.85
2022-07-25T19:46:00.524Z,13.32
2022-07-25T19:48:27.932Z,12.88
2022-07-25T19:50:55.243Z,15.25
2022-07-25T19:53:26.796Z,13.95
2022-07-25T19:55:55.756Z,14.32
2022-07-25T19:58:23.044Z,13.80
2022-07-25T20:00:50.478Z,14.30
2022-07-25T20:03:23.195Z,13.13
2022-07-25T20:05:51.247Z,12.88
2022-07-25T20:08:19.010Z,12.57
2022-07-25T20:10:47.559Z,11.52
2022-07-25T20:13:15.307Z,12.85
2022-07-25T20:15:42.656Z,11.32
2022-07-25T20:18:09.952Z,15.15
2022-07-25T20:20:37.384Z,12.63
2022-07-25T20:23:04.685Z,20.40
2022-07-25T20:25:32.218Z,13.73
2022-07-25T20:27:59.528Z,12.73
2022-07-25T20:30:29.313Z,13.38
2022-07-25T20:33:00.302Z,12.25
2022-07-25T20:35:34.488Z,11.57
2022-07-25T20:38:02.577Z,11.27
2022-07-25T20:40:41.779Z,11.63
2022-07-25T20:43:11.727Z,13.23
2022-07-25T20:45:39.153Z,11.38
2022-07-25T20:48:09.796Z,17.92
2022-07-25T20:50:38.981Z,11.10
2022-07-25T20:53:07.434Z,9.75
2022-07-25T20:55:35.063Z,12.48
2022-07-25T20:58:03.426Z,10.60
2022-07-25T21:00:30.953Z,8.98
2022-07-25T21:02:59.678Z,17.25
2022-07-25T21:05:27.833Z,10.65
2022-07-25T21:07:55.377Z,9.25
2022-07-25T21:10:23.424Z,11.68
2022-07-25T21:12:50.885Z,9.63
2022-07-25T21:15:18.240Z,9.10
2022-07-25T21:17:45.524Z,9.13
2022-07-25T21:20:14.445Z,12.32
2022-07-25T21:22:42.604Z,10.23
2022-07-25T21:25:10.908Z,11.00
2022-07-25T21:27:39.201Z,8.23
2022-07-25T21:30:08.339Z,9.15
2022-07-25T21:32:35.890Z,8.70
2022-07-25T21:35:05.103Z,13.82
2022-07-25T21:37:32.554Z,15.30
2022-07-25T21:40:00.245Z,9.88
2022-07-25T21:42:28.026Z,11.07
2022-07-25T21:44:56.159Z,12.52
2022-07-25T21:47:23.629Z,15.25
2022-07-25T21:50:09.427Z,11.82
2022-07-25T21:52:36.949Z,11.95
2022-07-25T21:55:05.492Z,12.75
2022-07-25T21:57:33.097Z,16.45
2022-07-25T22:00:00.383Z,11.48
2022-07-25T22:02:29.483Z,16.73
2022-07-25T22:04:56.838Z,11.43
2022-07-25T22:07:25.338Z,13.95
2022-07-25T22:09:52.790Z,14.85
2022-07-25T22:12:20.634Z,11.07
2022-07-25T22:14:47.978Z,11.23
2022-07-25T22:17:15.331Z,11.52
2022-07-25T22:19:42.582Z,14.32
2022-07-25T22:22:09.956Z,12.88
2022-07-25T22:24:39.180Z,12.55
2022-07-25T22:27:08.322Z,11.00
2022-07-25T22:29:35.635Z,10.82
2022-07-25T22:32:03.267Z,13.75
2022-07-25T22:34:32.502Z,10.18
2022-07-25T22:36:59.849Z,13.43
2022-07-25T22:39:27.308Z,13.73
2022-07-25T22:41:54.632Z,11.52
2022-07-25T22:44:22.591Z,9.98
2022-07-25T22:46:49.848Z,14.73
2022-07-25T22:49:17.255Z,11.48
2022-07-25T22:51:44.519Z,10.50
2022-07-25T22:54:12.207Z,16.35
2022-07-25T22:56:39.556Z,12.95
2022-07-25T22:59:07.169Z,11.20
2022-07-25T23:01:34.631Z,9.85
2022-07-25T23:04:02.018Z,8.38
2022-07-25T23:06:29.440Z,12.80
2022-07-25T23:08:57.118Z,13.80
2022-07-25T23:11:24.486Z,9.45
2022-07-25T23:13:51.996Z,10.30
2022-07-25T23:16:20.262Z,11.75
2022-07-25T23:18:47.758Z,15.15
2022-07-25T23:21:15.307Z,11.30
2022-07-25T23:23:42.742Z,12.82
2022-07-25T23:26:10.273Z,11.02
2022-07-25T23:28:40.358Z,14.10
2022-07-25T23:31:07.929Z,12.20
2022-07-25T23:33:35.348Z,11.40
2022-07-25T23:36:02.714Z,11.38
2022-07-25T23:38:30.039Z,12.02
2022-07-25T23:40:57.287Z,15.40
2022-07-25T23:43:48.800Z,9.88
2022-07-25T23:46:11.813Z,11.52
2022-07-25T23:48:39.207Z,9.30
2022-07-25T23:51:06.828Z,9.27
2022-07-25T23:53:35.969Z,9.60
2022-07-25T23:56:03.404Z,10.88
2022-07-25T23:58:30.748Z,9.98
